sensor_id;sensor_type;location;lat;lon;timestamp;P1;durP1;ratioP1;P2;durP2;ratioP2
28529;SDS011;15737;49.760;6.632;2022-08-01T00:00:40;0.65;;;0.65;;
28529;SDS011;15737;49.760;6.632;2022-08-01T00:03:05;0.98;;;0.80;;
28529;SDS011;15737;49.760;6.632;2022-08-01T00:05:31;0.85;;;0.85;;
28529;SDS011;15737;49.760;6.632;2022-08-01T00:07:57;1.95;;;0.90;;
28529;SDS011;15737;49.760;6.632;2022-08-01T00:10:22;0.82;;;0.82;;
28529;SDS011;15737;49.760;6.632;2022-08-01T00:12:49;1.65;;;1.00;;
28529;SDS011;15737;49.760;6.632;2022-08-01T00:15:15;0.70;;;0.70;;
28529;SDS011;15737;49.760;6.632;2022-08-01T00:17:41;0.70;;;0.70;;
28529;SDS011;15737;49.760;6.632;2022-08-01T00:20:09;1.83;;;1.00;;
28529;SDS011;15737;49.760;6.632;2022-08-01T00:22:37;1.35;;;0.90;;
28529;SDS011;15737;49.760;6.632;2022-08-01T00:25:03;1.38;;;1.20;;
28529;SDS011;15737;49.760;6.632;2022-08-01T00:27:30;0.80;;;0.80;;
28529;SDS011;15737;49.760;6.632;2022-08-01T00:29:56;1.40;;;0.68;;
28529;SDS011;15737;49.760;6.632;2022-08-01T00:32:22;0.75;;;0.75;;
28529;SDS011;15737;49.760;6.632;2022-08-01T00:34:47;1.73;;;1.00;;
28529;SDS011;15737;49.760;6.632;2022-08-01T00:37:13;0.80;;;0.80;;
28529;SDS011;15737;49.760;6.632;2022-08-01T00:39:39;0.80;;;0.80;;
28529;SDS011;15737;49.760;6.632;2022-08-01T00:42:11;0.80;;;0.80;;
28529;SDS011;15737;49.760;6.632;2022-08-01T00:44:37;2.35;;;0.88;;
28529;SDS011;15737;49.760;6.632;2022-08-01T00:47:03;0.60;;;0.60;;
28529;SDS011;15737;49.760;6.632;2022-08-01T00:49:29;1.08;;;1.08;;
28529;SDS011;15737;49.760;6.632;2022-08-01T00:51:55;1.10;;;1.00;;
28529;SDS011;15737;49.760;6.632;2022-08-01T00:54:22;0.90;;;0.90;;
28529;SDS011;15737;49.760;6.632;2022-08-01T00:56:49;1.25;;;0.80;;
28529;SDS011;15737;49.760;6.632;2022-08-01T00:59:15;0.90;;;0.90;;
28529;SDS011;15737;49.760;6.632;2022-08-01T01:01:42;1.30;;;1.15;;
28529;SDS011;15737;49.760;6.632;2022-08-01T01:04:08;0.75;;;0.75;;
28529;SDS011;15737;49.760;6.632;2022-08-01T01:09:06;1.00;;;1.00;;
28529;SDS011;15737;49.760;6.632;2022-08-01T01:14:32;0.88;;;0.88;;
28529;SDS011;15737;49.760;6.632;2022-08-01T01:17:03;0.75;;;0.75;;
28529;SDS011;15737;49.760;6.632;2022-08-01T01:19:35;1.05;;;0.88;;
28529;SDS011;15737;49.760;6.632;2022-08-01T01:22:19;2.60;;;0.90;;
28529;SDS011;15737;49.760;6.632;2022-08-01T01:27:57;2.15;;;1.10;;
28529;SDS011;15737;49.760;6.632;2022-08-01T01:30:37;1.25;;;0.85;;
28529;SDS011;15737;49.760;6.632;2022-08-01T01:33:06;1.90;;;0.85;;
28529;SDS011;15737;49.760;6.632;2022-08-01T01:35:35;0.83;;;0.83;;
28529;SDS011;15737;49.760;6.632;2022-08-01T01:38:20;2.65;;;0.63;;
28529;SDS011;15737;49.760;6.632;2022-08-01T01:40:47;1.43;;;1.00;;
28529;SDS011;15737;49.760;6.632;2022-08-01T01:43:15;1.00;;;1.00;;
28529;SDS011;15737;49.760;6.632;2022-08-01T01:45:43;0.93;;;0.80;;
28529;SDS011;15737;49.760;6.632;2022-08-01T01:48:16;0.70;;;0.70;;
28529;SDS011;15737;49.760;6.632;2022-08-01T01:50:45;0.70;;;0.70;;
28529;SDS011;15737;49.760;6.632;2022-08-01T01:53:12;0.70;;;0.70;;
28529;SDS011;15737;49.760;6.632;2022-08-01T01:55:40;1.27;;;1.00;;
28529;SDS011;15737;49.760;6.632;2022-08-01T01:58:08;0.90;;;0.80;;
28529;SDS011;15737;49.760;6.632;2022-08-01T02:00:38;2.35;;;1.10;;
28529;SDS011;15737;49.760;6.632;2022-08-01T02:03:06;2.10;;;0.80;;
28529;SDS011;15737;49.760;6.632;2022-08-01T02:05:33;1.17;;;0.70;;
28529;SDS011;15737;49.760;6.632;2022-08-01T02:08:02;1.07;;;0.97;;
28529;SDS011;15737;49.760;6.632;2022-08-01T02:10:30;0.73;;;0.73;;
28529;SDS011;15737;49.760;6.632;2022-08-01T02:12:57;1.37;;;0.70;;
28529;SDS011;15737;49.760;6.632;2022-08-01T02:15:24;0.90;;;0.90;;
28529;SDS011;15737;49.760;6.632;2022-08-01T02:17:53;1.00;;;0.90;;
28529;SDS011;15737;49.760;6.632;2022-08-01T02:20:19;0.95;;;0.95;;
28529;SDS011;15737;49.760;6.632;2022-08-01T02:22:49;0.80;;;0.80;;
28529;SDS011;15737;49.760;6.632;2022-08-01T02:27:55;0.90;;;0.77;;
28529;SDS011;15737;49.760;6.632;2022-08-01T02:31:02;2.05;;;0.90;;
28529;SDS011;15737;49.760;6.632;2022-08-01T02:33:52;0.80;;;0.80;;
28529;SDS011;15737;49.760;6.632;2022-08-01T02:36:22;0.53;;;0.53;;
28529;SDS011;15737;49.760;6.632;2022-08-01T02:38:51;0.70;;;0.70;;
28529;SDS011;15737;49.760;6.632;2022-08-01T02:41:19;0.93;;;0.60;;
28529;SDS011;15737;49.760;6.632;2022-08-01T02:43:47;0.60;;;0.60;;
28529;SDS011;15737;49.760;6.632;2022-08-01T02:46:19;1.20;;;0.83;;
28529;SDS011;15737;49.760;6.632;2022-08-01T02:48:49;0.67;;;0.67;;
28529;SDS011;15737;49.760;6.632;2022-08-01T02:51:18;1.45;;;0.70;;
28529;SDS011;15737;49.760;6.632;2022-08-01T02:53:46;2.63;;;0.80;;
28529;SDS011;15737;49.760;6.632;2022-08-01T02:56:14;1.53;;;0.97;;
28529;SDS011;15737;49.760;6.632;2022-08-01T02:58:42;0.80;;;0.80;;
28529;SDS011;15737;49.760;6.632;2022-08-01T03:01:09;1.37;;;0.73;;
28529;SDS011;15737;49.760;6.632;2022-08-01T03:03:36;0.67;;;0.67;;
28529;SDS011;15737;49.760;6.632;2022-08-01T03:06:02;2.17;;;0.90;;
28529;SDS011;15737;49.760;6.632;2022-08-01T03:08:29;1.00;;;0.80;;
28529;SDS011;15737;49.760;6.632;2022-08-01T03:10:55;0.60;;;0.60;;
28529;SDS011;15737;49.760;6.632;2022-08-01T03:13:23;0.60;;;0.43;;
28529;SDS011;15737;49.760;6.632;2022-08-01T03:15:52;0.70;;;0.70;;
28529;SDS011;15737;49.760;6.632;2022-08-01T03:18:19;1.30;;;0.90;;
28529;SDS011;15737;49.760;6.632;2022-08-01T03:20:47;0.63;;;0.63;;
28529;SDS011;15737;49.760;6.632;2022-08-01T03:23:14;0.80;;;0.80;;
28529;SDS011;15737;49.760;6.632;2022-08-01T03:25:41;1.07;;;0.80;;
28529;SDS011;15737;49.760;6.632;2022-08-01T03:28:10;1.90;;;1.53;;
28529;SDS011;15737;49.760;6.632;2022-08-01T03:30:38;1.23;;;0.60;;
28529;SDS011;15737;49.760;6.632;2022-08-01T03:33:05;0.70;;;0.70;;
28529;SDS011;15737;49.760;6.632;2022-08-01T03:35:36;0.80;;;0.70;;
28529;SDS011;15737;49.760;6.632;2022-08-01T03:38:15;0.60;;;0.60;;
28529;SDS011;15737;49.760;6.632;2022-08-01T03:40:45;0.50;;;0.50;;
28529;SDS011;15737;49.760;6.632;2022-08-01T03:43:15;0.90;;;0.90;;
28529;SDS011;15737;49.760;6.632;2022-08-01T03:45:49;0.83;;;0.60;;
28529;SDS011;15737;49.760;6.632;2022-08-01T03:48:18;0.60;;;0.60;;
28529;SDS011;15737;49.760;6.632;2022-08-01T03:50:48;0.60;;;0.60;;
28529;SDS011;15737;49.760;6.632;2022-08-01T03:53:20;0.90;;;0.67;;
28529;SDS011;15737;49.760;6.632;2022-08-01T03:55:49;0.60;;;0.60;;
28529;SDS011;15737;49.760;6.632;2022-08-01T03:58:16;0.60;;;0.60;;
28529;SDS011;15737;49.760;6.632;2022-08-01T04:00:42;0.63;;;0.63;;
28529;SDS011;15737;49.760;6.632;2022-08-01T04:03:08;2.10;;;0.80;;
28529;SDS011;15737;49.760;6.632;2022-08-01T04:05:35;0.87;;;0.70;;
28529;SDS011;15737;49.760;6.632;2022-08-01T04:08:01;0.70;;;0.70;;
28529;SDS011;15737;49.760;6.632;2022-08-01T04:10:27;2.37;;;0.80;;
28529;SDS011;15737;49.760;6.632;2022-08-01T04:12:54;0.93;;;0.70;;
28529;SDS011;15737;49.760;6.632;2022-08-01T04:15:20;2.00;;;1.07;;
28529;SDS011;15737;49.760;6.632;2022-08-01T04:17:46;1.20;;;0.70;;
28529;SDS011;15737;49.760;6.632;2022-08-01T04:20:12;1.20;;;0.80;;
28529;SDS011;15737;49.760;6.632;2022-08-01T04:22:38;2.10;;;0.80;;
28529;SDS011;15737;49.760;6.632;2022-08-01T04:25:05;2.67;;;0.90;;
28529;SDS011;15737;49.760;6.632;2022-08-01T04:27:45;3.03;;;0.60;;
28529;SDS011;15737;49.760;6.632;2022-08-01T04:30:13;0.60;;;0.60;;
28529;SDS011;15737;49.760;6.632;2022-08-01T04:32:39;0.70;;;0.70;;
28529;SDS011;15737;49.760;6.632;2022-08-01T04:35:09;0.70;;;0.70;;
28529;SDS011;15737;49.760;6.632;2022-08-01T04:37:41;0.80;;;0.80;;
28529;SDS011;15737;49.760;6.632;2022-08-01T04:40:09;0.83;;;0.83;;
28529;SDS011;15737;49.760;6.632;2022-08-01T04:42:35;0.60;;;0.60;;
28529;SDS011;15737;49.760;6.632;2022-08-01T04:45:01;1.17;;;0.80;;
28529;SDS011;15737;49.760;6.632;2022-08-01T04:47:27;0.50;;;0.50;;
28529;SDS011;15737;49.760;6.632;2022-08-01T04:49:54;0.60;;;0.60;;
28529;SDS011;15737;49.760;6.632;2022-08-01T04:52:21;0.87;;;0.80;;
28529;SDS011;15737;49.760;6.632;2022-08-01T04:54:47;1.07;;;0.73;;
28529;SDS011;15737;49.760;6.632;2022-08-01T04:57:13;0.80;;;0.70;;
28529;SDS011;15737;49.760;6.632;2022-08-01T04:59:41;0.60;;;0.60;;
28529;SDS011;15737;49.760;6.632;2022-08-01T05:02:12;0.60;;;0.60;;
28529;SDS011;15737;49.760;6.632;2022-08-01T05:04:43;0.80;;;0.80;;
28529;SDS011;15737;49.760;6.632;2022-08-01T05:07:10;1.23;;;0.90;;
28529;SDS011;15737;49.760;6.632;2022-08-01T05:09:37;1.13;;;0.90;;
28529;SDS011;15737;49.760;6.632;2022-08-01T05:12:08;0.50;;;0.50;;
28529;SDS011;15737;49.760;6.632;2022-08-01T05:14:35;1.37;;;0.80;;
28529;SDS011;15737;49.760;6.632;2022-08-01T05:17:02;0.60;;;0.60;;
28529;SDS011;15737;49.760;6.632;2022-08-01T05:19:30;0.60;;;0.60;;
28529;SDS011;15737;49.760;6.632;2022-08-01T05:21:59;0.50;;;0.50;;
28529;SDS011;15737;49.760;6.632;2022-08-01T05:24:26;2.13;;;0.60;;
28529;SDS011;15737;49.760;6.632;2022-08-01T05:26:53;0.80;;;0.80;;
28529;SDS011;15737;49.760;6.632;2022-08-01T05:29:21;0.60;;;0.60;;
28529;SDS011;15737;49.760;6.632;2022-08-01T05:31:46;0.57;;;0.57;;
28529;SDS011;15737;49.760;6.632;2022-08-01T05:34:12;1.38;;;0.70;;
28529;SDS011;15737;49.760;6.632;2022-08-01T05:36:37;0.68;;;0.47;;
28529;SDS011;15737;49.760;6.632;2022-08-01T05:39:03;1.20;;;0.65;;
28529;SDS011;15737;49.760;6.632;2022-08-01T05:41:29;0.73;;;0.50;;
28529;SDS011;15737;49.760;6.632;2022-08-01T05:43:55;1.10;;;0.57;;
28529;SDS011;15737;49.760;6.632;2022-08-01T05:46:21;0.82;;;0.82;;
28529;SDS011;15737;49.760;6.632;2022-08-01T05:48:46;0.50;;;0.50;;
28529;SDS011;15737;49.760;6.632;2022-08-01T05:51:12;1.20;;;0.88;;
28529;SDS011;15737;49.760;6.632;2022-08-01T05:53:38;0.70;;;0.70;;
28529;SDS011;15737;49.760;6.632;2022-08-01T05:56:04;0.70;;;0.70;;
28529;SDS011;15737;49.760;6.632;2022-08-01T05:58:30;0.70;;;0.70;;
28529;SDS011;15737;49.760;6.632;2022-08-01T06:00:56;0.70;;;0.70;;
28529;SDS011;15737;49.760;6.632;2022-08-01T06:03:22;2.17;;;1.20;;
28529;SDS011;15737;49.760;6.632;2022-08-01T06:05:48;0.90;;;0.90;;
28529;SDS011;15737;49.760;6.632;2022-08-01T06:08:13;2.15;;;0.93;;
28529;SDS011;15737;49.760;6.632;2022-08-01T06:10:39;1.95;;;0.90;;
28529;SDS011;15737;49.760;6.632;2022-08-01T06:13:05;1.23;;;0.80;;
28529;SDS011;15737;49.760;6.632;2022-08-01T06:15:31;2.50;;;0.88;;
28529;SDS011;15737;49.760;6.632;2022-08-01T06:17:57;1.80;;;0.75;;
28529;SDS011;15737;49.760;6.632;2022-08-01T06:20:23;0.60;;;0.60;;
28529;SDS011;15737;49.760;6.632;2022-08-01T06:22:48;0.50;;;0.50;;
28529;SDS011;15737;49.760;6.632;2022-08-01T06:25:16;0.60;;;0.60;;
28529;SDS011;15737;49.760;6.632;2022-08-01T06:27:42;4.40;;;1.10;;
28529;SDS011;15737;49.760;6.632;2022-08-01T06:30:09;1.58;;;0.65;;
28529;SDS011;15737;49.760;6.632;2022-08-01T06:32:35;0.65;;;0.65;;
28529;SDS011;15737;49.760;6.632;2022-08-01T06:35:00;0.70;;;0.70;;
28529;SDS011;15737;49.760;6.632;2022-08-01T06:37:29;2.15;;;0.80;;
28529;SDS011;15737;49.760;6.632;2022-08-01T06:39:56;3.50;;;1.08;;
28529;SDS011;15737;49.760;6.632;2022-08-01T06:42:25;2.10;;;0.95;;
28529;SDS011;15737;49.760;6.632;2022-08-01T06:44:51;0.65;;;0.65;;
28529;SDS011;15737;49.760;6.632;2022-08-01T06:47:16;1.25;;;0.80;;
28529;SDS011;15737;49.760;6.632;2022-08-01T06:49:42;0.88;;;0.82;;
28529;SDS011;15737;49.760;6.632;2022-08-01T06:52:07;1.00;;;0.95;;
28529;SDS011;15737;49.760;6.632;2022-08-01T06:54:33;0.80;;;0.80;;
28529;SDS011;15737;49.760;6.632;2022-08-01T06:57:05;2.05;;;0.95;;
28529;SDS011;15737;49.760;6.632;2022-08-01T06:59:33;0.80;;;0.80;;
28529;SDS011;15737;49.760;6.632;2022-08-01T07:01:59;1.15;;;0.90;;
28529;SDS011;15737;49.760;6.632;2022-08-01T07:04:26;1.05;;;0.82;;
28529;SDS011;15737;49.760;6.632;2022-08-01T07:06:51;0.80;;;0.80;;
28529;SDS011;15737;49.760;6.632;2022-08-01T07:09:17;0.90;;;0.90;;
28529;SDS011;15737;49.760;6.632;2022-08-01T07:11:42;1.55;;;0.73;;
28529;SDS011;15737;49.760;6.632;2022-08-01T07:14:08;3.58;;;0.90;;
28529;SDS011;15737;49.760;6.632;2022-08-01T07:16:33;2.30;;;1.00;;
28529;SDS011;15737;49.760;6.632;2022-08-01T07:18:59;0.70;;;0.70;;
28529;SDS011;15737;49.760;6.632;2022-08-01T07:21:24;0.73;;;0.73;;
28529;SDS011;15737;49.760;6.632;2022-08-01T07:23:50;0.55;;;0.55;;
28529;SDS011;15737;49.760;6.632;2022-08-01T07:26:15;1.10;;;0.73;;
28529;SDS011;15737;49.760;6.632;2022-08-01T07:28:42;0.90;;;0.90;;
28529;SDS011;15737;49.760;6.632;2022-08-01T07:31:07;0.80;;;0.80;;
28529;SDS011;15737;49.760;6.632;2022-08-01T07:33:33;0.90;;;0.90;;
28529;SDS011;15737;49.760;6.632;2022-08-01T07:35:59;1.23;;;1.13;;
28529;SDS011;15737;49.760;6.632;2022-08-01T07:38:24;1.42;;;1.10;;
28529;SDS011;15737;49.760;6.632;2022-08-01T07:40:50;0.98;;;0.90;;
28529;SDS011;15737;49.760;6.632;2022-08-01T07:43:15;3.25;;;0.90;;
28529;SDS011;15737;49.760;6.632;2022-08-01T07:45:41;1.52;;;0.90;;
28529;SDS011;15737;49.760;6.632;2022-08-01T07:48:07;0.80;;;0.80;;
28529;SDS011;15737;49.760;6.632;2022-08-01T07:50:33;1.15;;;0.90;;
28529;SDS011;15737;49.760;6.632;2022-08-01T07:52:59;1.17;;;0.95;;
28529;SDS011;15737;49.760;6.632;2022-08-01T07:55:25;0.90;;;0.90;;
28529;SDS011;15737;49.760;6.632;2022-08-01T07:57:51;1.83;;;0.90;;
28529;SDS011;15737;49.760;6.632;2022-08-01T08:00:16;1.73;;;0.90;;
28529;SDS011;15737;49.760;6.632;2022-08-01T08:02:43;1.05;;;1.00;;
28529;SDS011;15737;49.760;6.632;2022-08-01T08:05:09;1.15;;;1.05;;
28529;SDS011;15737;49.760;6.632;2022-08-01T08:07:34;1.27;;;1.20;;
28529;SDS011;15737;49.760;6.632;2022-08-01T08:10:00;1.00;;;1.00;;
28529;SDS011;15737;49.760;6.632;2022-08-01T08:12:25;1.27;;;1.08;;
28529;SDS011;15737;49.760;6.632;2022-08-01T08:14:51;1.63;;;1.10;;
28529;SDS011;15737;49.760;6.632;2022-08-01T08:17:17;1.10;;;1.00;;
28529;SDS011;15737;49.760;6.632;2022-08-01T08:19:42;0.80;;;0.80;;
28529;SDS011;15737;49.760;6.632;2022-08-01T08:22:09;1.20;;;1.00;;
28529;SDS011;15737;49.760;6.632;2022-08-01T08:24:35;1.52;;;1.10;;
28529;SDS011;15737;49.760;6.632;2022-08-01T08:27:01;2.47;;;1.17;;
28529;SDS011;15737;49.760;6.632;2022-08-01T08:29:28;1.50;;;1.10;;
28529;SDS011;15737;49.760;6.632;2022-08-01T08:31:57;2.47;;;1.10;;
28529;SDS011;15737;49.760;6.632;2022-08-01T08:34:23;0.95;;;0.80;;
28529;SDS011;15737;49.760;6.632;2022-08-01T08:36:50;1.48;;;1.02;;
28529;SDS011;15737;49.760;6.632;2022-08-01T08:39:16;1.00;;;1.00;;
28529;SDS011;15737;49.760;6.632;2022-08-01T08:41:42;1.05;;;0.90;;
28529;SDS011;15737;49.760;6.632;2022-08-01T08:44:08;0.90;;;0.90;;
28529;SDS011;15737;49.760;6.632;2022-08-01T08:46:38;0.98;;;0.93;;
28529;SDS011;15737;49.760;6.632;2022-08-01T08:49:07;1.10;;;0.75;;
28529;SDS011;15737;49.760;6.632;2022-08-01T08:51:34;0.90;;;0.90;;
28529;SDS011;15737;49.760;6.632;2022-08-01T08:54:03;1.10;;;1.10;;
28529;SDS011;15737;49.760;6.632;2022-08-01T08:56:30;1.05;;;1.00;;
28529;SDS011;15737;49.760;6.632;2022-08-01T08:58:59;0.98;;;0.98;;
28529;SDS011;15737;49.760;6.632;2022-08-01T09:04:03;1.10;;;1.00;;
28529;SDS011;15737;49.760;6.632;2022-08-01T09:06:29;2.35;;;1.10;;
28529;SDS011;15737;49.760;6.632;2022-08-01T09:08:56;1.63;;;1.10;;
28529;SDS011;15737;49.760;6.632;2022-08-01T09:11:22;0.90;;;0.90;;
28529;SDS011;15737;49.760;6.632;2022-08-01T09:14:01;2.63;;;1.00;;
28529;SDS011;15737;49.760;6.632;2022-08-01T09:16:28;1.35;;;1.25;;
28529;SDS011;15737;49.760;6.632;2022-08-01T09:18:54;1.48;;;1.08;;
28529;SDS011;15737;49.760;6.632;2022-08-01T09:21:32;1.02;;;0.80;;
28529;SDS011;15737;49.760;6.632;2022-08-01T09:23:57;2.50;;;1.58;;
28529;SDS011;15737;49.760;6.632;2022-08-01T09:26:28;3.20;;;3.08;;
28529;SDS011;15737;49.760;6.632;2022-08-01T09:28:56;8.52;;;8.10;;
28529;SDS011;15737;49.760;6.632;2022-08-01T09:31:22;25.35;;;24.27;;
28529;SDS011;15737;49.760;6.632;2022-08-01T09:36:21;1.67;;;1.58;;
28529;SDS011;15737;49.760;6.632;2022-08-01T09:38:48;1.13;;;1.13;;
28529;SDS011;15737;49.760;6.632;2022-08-01T09:41:14;1.10;;;1.10;;
28529;SDS011;15737;49.760;6.632;2022-08-01T09:43:40;1.80;;;1.70;;
28529;SDS011;15737;49.760;6.632;2022-08-01T09:46:13;1.58;;;1.48;;
28529;SDS011;15737;49.760;6.632;2022-08-01T09:48:39;10.13;;;9.43;;
28529;SDS011;15737;49.760;6.632;2022-08-01T09:51:29;20.13;;;19.13;;
28529;SDS011;15737;49.760;6.632;2022-08-01T09:54:00;33.78;;;32.25;;
28529;SDS011;15737;49.760;6.632;2022-08-01T09:56:35;52.15;;;49.53;;
28529;SDS011;15737;49.760;6.632;2022-08-01T09:59:02;55.60;;;52.97;;
28529;SDS011;15737;49.760;6.632;2022-08-01T10:01:29;50.75;;;48.25;;
28529;SDS011;15737;49.760;6.632;2022-08-01T10:04:12;48.72;;;46.47;;
28529;SDS011;15737;49.760;6.632;2022-08-01T10:06:39;52.20;;;49.70;;
28529;SDS011;15737;49.760;6.632;2022-08-01T10:09:07;44.20;;;42.10;;
28529;SDS011;15737;49.760;6.632;2022-08-01T10:11:33;47.92;;;45.67;;
28529;SDS011;15737;49.760;6.632;2022-08-01T10:14:04;44.28;;;42.17;;
28529;SDS011;15737;49.760;6.632;2022-08-01T10:16:30;45.33;;;43.20;;
28529;SDS011;15737;49.760;6.632;2022-08-01T10:18:58;50.20;;;47.72;;
28529;SDS011;15737;49.760;6.632;2022-08-01T10:21:25;53.10;;;50.47;;
28529;SDS011;15737;49.760;6.632;2022-08-01T10:23:52;51.55;;;49.05;;
28529;SDS011;15737;49.760;6.632;2022-08-01T10:26:20;57.20;;;54.42;;
28529;SDS011;15737;49.760;6.632;2022-08-01T10:28:49;55.83;;;52.92;;
28529;SDS011;15737;49.760;6.632;2022-08-01T10:31:16;53.67;;;51.10;;
28529;SDS011;15737;49.760;6.632;2022-08-01T10:33:43;41.05;;;38.90;;
28529;SDS011;15737;49.760;6.632;2022-08-01T10:36:09;35.80;;;34.08;;
28529;SDS011;15737;49.760;6.632;2022-08-01T10:38:35;47.95;;;45.58;;
28529;SDS011;15737;49.760;6.632;2022-08-01T10:41:02;53.17;;;50.55;;
28529;SDS011;15737;49.760;6.632;2022-08-01T10:43:28;47.83;;;45.38;;
28529;SDS011;15737;49.760;6.632;2022-08-01T10:45:54;53.72;;;51.13;;
28529;SDS011;15737;49.760;6.632;2022-08-01T10:48:22;46.75;;;44.53;;
28529;SDS011;15737;49.760;6.632;2022-08-01T10:50:55;60.70;;;57.65;;
28529;SDS011;15737;49.760;6.632;2022-08-01T10:53:28;46.97;;;44.75;;
28529;SDS011;15737;49.760;6.632;2022-08-01T10:58:26;61.72;;;58.42;;
28529;SDS011;15737;49.760;6.632;2022-08-01T11:03:40;58.13;;;55.28;;
28529;SDS011;15737;49.760;6.632;2022-08-01T11:06:12;54.35;;;51.58;;
28529;SDS011;15737;49.760;6.632;2022-08-01T11:08:52;49.03;;;46.60;;
28529;SDS011;15737;49.760;6.632;2022-08-01T11:11:19;52.55;;;49.95;;
28529;SDS011;15737;49.760;6.632;2022-08-01T11:16:32;51.05;;;48.58;;
28529;SDS011;15737;49.760;6.632;2022-08-01T11:18:59;53.17;;;50.70;;
28529;SDS011;15737;49.760;6.632;2022-08-01T11:21:57;58.65;;;55.75;;
28529;SDS011;15737;49.760;6.632;2022-08-01T11:27:23;46.28;;;44.05;;
28529;SDS011;15737;49.760;6.632;2022-08-01T11:32:56;53.53;;;50.92;;
28529;SDS011;15737;49.760;6.632;2022-08-01T11:35:21;56.28;;;53.45;;
28529;SDS011;15737;49.760;6.632;2022-08-01T11:37:50;51.38;;;48.88;;
28529;SDS011;15737;49.760;6.632;2022-08-01T11:40:23;59.15;;;56.25;;
28529;SDS011;15737;49.760;6.632;2022-08-01T11:45:51;60.08;;;57.20;;
28529;SDS011;15737;49.760;6.632;2022-08-01T11:48:20;68.22;;;65.03;;
28529;SDS011;15737;49.760;6.632;2022-08-01T11:50:50;87.32;;;83.47;;
28529;SDS011;15737;49.760;6.632;2022-08-01T11:53:17;87.75;;;83.47;;
28529;SDS011;15737;49.760;6.632;2022-08-01T11:55:51;121.07;;;114.63;;
28529;SDS011;15737;49.760;6.632;2022-08-01T11:58:22;123.57;;;117.10;;
28529;SDS011;15737;49.760;6.632;2022-08-01T12:00:50;121.13;;;114.78;;
28529;SDS011;15737;49.760;6.632;2022-08-01T12:03:28;149.13;;;140.30;;
28529;SDS011;15737;49.760;6.632;2022-08-01T12:05:55;143.10;;;134.40;;
28529;SDS011;15737;49.760;6.632;2022-08-01T12:10:52;0.60;;;0.60;;
28529;SDS011;15737;49.760;6.632;2022-08-01T12:13:18;1.00;;;0.90;;
28529;SDS011;15737;49.760;6.632;2022-08-01T12:15:45;0.90;;;0.90;;
28529;SDS011;15737;49.760;6.632;2022-08-01T12:18:10;0.73;;;0.70;;
28529;SDS011;15737;49.760;6.632;2022-08-01T12:20:37;0.93;;;0.93;;
28529;SDS011;15737;49.760;6.632;2022-08-01T12:23:05;1.05;;;1.05;;
28529;SDS011;15737;49.760;6.632;2022-08-01T12:25:33;0.93;;;0.93;;
28529;SDS011;15737;49.760;6.632;2022-08-01T12:28:00;1.00;;;1.00;;
28529;SDS011;15737;49.760;6.632;2022-08-01T12:30:28;0.80;;;0.80;;
28529;SDS011;15737;49.760;6.632;2022-08-01T12:32:56;0.90;;;0.90;;
28529;SDS011;15737;49.760;6.632;2022-08-01T12:35:23;0.90;;;0.90;;
28529;SDS011;15737;49.760;6.632;2022-08-01T12:37:50;0.70;;;0.70;;
28529;SDS011;15737;49.760;6.632;2022-08-01T12:40:21;1.00;;;1.00;;
28529;SDS011;15737;49.760;6.632;2022-08-01T12:42:55;1.25;;;1.10;;
28529;SDS011;15737;49.760;6.632;2022-08-01T12:45:25;0.85;;;0.85;;
28529;SDS011;15737;49.760;6.632;2022-08-01T12:47:53;0.80;;;0.80;;
28529;SDS011;15737;49.760;6.632;2022-08-01T12:50:21;0.80;;;0.80;;
28529;SDS011;15737;49.760;6.632;2022-08-01T12:52:49;0.65;;;0.65;;
28529;SDS011;15737;49.760;6.632;2022-08-01T12:55:16;1.20;;;0.60;;
28529;SDS011;15737;49.760;6.632;2022-08-01T12:57:44;0.68;;;0.68;;
28529;SDS011;15737;49.760;6.632;2022-08-01T13:00:16;0.70;;;0.70;;
28529;SDS011;15737;49.760;6.632;2022-08-01T13:02:42;1.40;;;0.73;;
28529;SDS011;15737;49.760;6.632;2022-08-01T13:05:12;0.70;;;0.70;;
28529;SDS011;15737;49.760;6.632;2022-08-01T13:07:47;0.98;;;0.70;;
28529;SDS011;15737;49.760;6.632;2022-08-01T13:12:50;0.80;;;0.80;;
28529;SDS011;15737;49.760;6.632;2022-08-01T13:15:18;0.70;;;0.70;;
28529;SDS011;15737;49.760;6.632;2022-08-01T13:17:46;1.88;;;0.90;;
28529;SDS011;15737;49.760;6.632;2022-08-01T13:20:22;0.70;;;0.70;;
28529;SDS011;15737;49.760;6.632;2022-08-01T13:22:55;1.35;;;0.80;;
28529;SDS011;15737;49.760;6.632;2022-08-01T13:25:34;0.73;;;0.70;;
28529;SDS011;15737;49.760;6.632;2022-08-01T13:28:16;0.88;;;0.77;;
28529;SDS011;15737;49.760;6.632;2022-08-01T13:30:59;0.50;;;0.50;;
28529;SDS011;15737;49.760;6.632;2022-08-01T13:33:27;0.88;;;0.88;;
28529;SDS011;15737;49.760;6.632;2022-08-01T13:36:06;1.00;;;0.60;;
28529;SDS011;15737;49.760;6.632;2022-08-01T13:38:31;0.82;;;0.82;;
28529;SDS011;15737;49.760;6.632;2022-08-01T13:43:46;0.70;;;0.70;;
28529;SDS011;15737;49.760;6.632;2022-08-01T13:46:11;0.68;;;0.68;;
28529;SDS011;15737;49.760;6.632;2022-08-01T13:48:37;0.73;;;0.70;;
28529;SDS011;15737;49.760;6.632;2022-08-01T13:51:02;0.95;;;0.80;;
28529;SDS011;15737;49.760;6.632;2022-08-01T13:53:28;0.80;;;0.80;;
28529;SDS011;15737;49.760;6.632;2022-08-01T13:55:53;0.80;;;0.73;;
28529;SDS011;15737;49.760;6.632;2022-08-01T13:58:19;0.60;;;0.60;;
28529;SDS011;15737;49.760;6.632;2022-08-01T14:00:45;0.88;;;0.80;;
28529;SDS011;15737;49.760;6.632;2022-08-01T14:03:11;0.70;;;0.70;;
28529;SDS011;15737;49.760;6.632;2022-08-01T14:05:37;0.57;;;0.57;;
28529;SDS011;15737;49.760;6.632;2022-08-01T14:08:03;0.68;;;0.68;;
28529;SDS011;15737;49.760;6.632;2022-08-01T14:10:29;0.95;;;0.82;;
28529;SDS011;15737;49.760;6.632;2022-08-01T14:12:55;1.15;;;1.00;;
28529;SDS011;15737;49.760;6.632;2022-08-01T14:15:21;0.93;;;0.82;;
28529;SDS011;15737;49.760;6.632;2022-08-01T14:17:47;0.70;;;0.70;;
28529;SDS011;15737;49.760;6.632;2022-08-01T14:20:12;1.15;;;0.80;;
28529;SDS011;15737;49.760;6.632;2022-08-01T14:22:38;0.80;;;0.80;;
28529;SDS011;15737;49.760;6.632;2022-08-01T14:25:05;0.70;;;0.70;;
28529;SDS011;15737;49.760;6.632;2022-08-01T14:27:31;1.40;;;0.80;;
28529;SDS011;15737;49.760;6.632;2022-08-01T14:30:00;0.90;;;0.90;;
28529;SDS011;15737;49.760;6.632;2022-08-01T14:32:26;0.80;;;0.80;;
28529;SDS011;15737;49.760;6.632;2022-08-01T14:34:52;0.65;;;0.65;;
28529;SDS011;15737;49.760;6.632;2022-08-01T14:37:18;0.80;;;0.80;;
28529;SDS011;15737;49.760;6.632;2022-08-01T14:39:43;2.05;;;0.80;;
28529;SDS011;15737;49.760;6.632;2022-08-01T14:42:09;0.80;;;0.80;;
28529;SDS011;15737;49.760;6.632;2022-08-01T14:44:34;0.82;;;0.82;;
28529;SDS011;15737;49.760;6.632;2022-08-01T14:47:00;0.85;;;0.85;;
28529;SDS011;15737;49.760;6.632;2022-08-01T14:49:25;0.70;;;0.70;;
28529;SDS011;15737;49.760;6.632;2022-08-01T14:51:51;0.80;;;0.80;;
28529;SDS011;15737;49.760;6.632;2022-08-01T14:54:16;0.77;;;0.77;;
28529;SDS011;15737;49.760;6.632;2022-08-01T14:56:42;1.00;;;1.00;;
28529;SDS011;15737;49.760;6.632;2022-08-01T14:59:07;1.13;;;0.90;;
28529;SDS011;15737;49.760;6.632;2022-08-01T15:01:33;0.60;;;0.60;;
28529;SDS011;15737;49.760;6.632;2022-08-01T15:03:58;0.85;;;0.85;;
28529;SDS011;15737;49.760;6.632;2022-08-01T15:06:24;0.90;;;0.90;;
28529;SDS011;15737;49.760;6.632;2022-08-01T15:08:49;6.07;;;1.00;;
28529;SDS011;15737;49.760;6.632;2022-08-01T15:11:15;0.80;;;0.80;;
28529;SDS011;15737;49.760;6.632;2022-08-01T15:13:41;0.65;;;0.65;;
28529;SDS011;15737;49.760;6.632;2022-08-01T15:16:14;2.30;;;0.95;;
28529;SDS011;15737;49.760;6.632;2022-08-01T15:18:42;0.77;;;0.77;;
28529;SDS011;15737;49.760;6.632;2022-08-01T15:21:07;0.80;;;0.80;;
28529;SDS011;15737;49.760;6.632;2022-08-01T15:23:43;0.77;;;0.77;;
28529;SDS011;15737;49.760;6.632;2022-08-01T15:26:14;0.75;;;0.75;;
28529;SDS011;15737;49.760;6.632;2022-08-01T15:28:45;1.58;;;0.80;;